createdAt,value
2015-03-07T00:00:10.515Z,427
2015-03-07T00:00:24.343Z,419
2015-03-07T00:00:38.634Z,427
2015-03-07T00:00:52.539Z,404
2015-03-07T00:01:14.716Z,394
2015-03-07T00:01:28.456Z,404
2015-03-07T00:01:42.083Z,419
2015-03-07T00:01:56.037Z,426
2015-03-07T00:02:10.344Z,401
2015-03-07T00:02:24.471Z,425
2015-03-07T00:02:38.077Z,407
2015-03-07T00:02:52.187Z,407
2015-03-07T00:03:05.978Z,405
2015-03-07T00:03:19.652Z,411
2015-03-07T00:03:33.366Z,404
2015-03-07T00:03:47.549Z,413
2015-03-07T00:04:01.337Z,427
2015-03-07T00:04:15.079Z,404
2015-03-07T00:04:28.861Z,411
2015-03-07T00:04:43.565Z,435
2015-03-07T00:04:58.364Z,419
2015-03-07T00:05:12.655Z,410
2015-03-07T00:05:26.510Z,402
2015-03-07T00:05:40.218Z,410
2015-03-07T00:05:53.882Z,411
2015-03-07T00:06:07.622Z,401
2015-03-07T00:06:21.402Z,432
2015-03-07T00:06:35.146Z,410
2015-03-07T00:06:49.920Z,395
2015-03-07T00:07:04.371Z,433
2015-03-07T00:07:18.717Z,426
2015-03-07T00:07:32.557Z,434
2015-03-07T00:07:46.130Z,418
2015-03-07T00:08:00.639Z,433
2015-03-07T00:08:15.848Z,431
2015-03-07T00:08:29.629Z,423
2015-03-07T00:08:43.308Z,409
2015-03-07T00:08:57.099Z,388
2015-03-07T00:09:10.778Z,419
2015-03-07T00:09:24.429Z,419
2015-03-07T00:09:38.192Z,394
2015-03-07T00:09:51.901Z,419
2015-03-07T00:10:05.628Z,396
2015-03-07T00:10:19.244Z,396
2015-03-07T00:10:32.996Z,412
2015-03-07T00:10:46.768Z,404
2015-03-07T00:11:00.401Z,395
2015-03-07T00:11:14.332Z,411
2015-03-07T00:11:28.172Z,411
2015-03-07T00:11:41.754Z,387
2015-03-07T00:11:55.375Z,411
2015-03-07T00:12:09.123Z,409
2015-03-07T00:12:22.836Z,402
2015-03-07T00:12:36.445Z,410
2015-03-07T00:12:50.170Z,394
2015-03-07T00:13:03.786Z,419
2015-03-07T00:13:17.560Z,395
2015-03-07T00:13:31.201Z,403
2015-03-07T00:13:44.823Z,426
2015-03-07T00:13:58.564Z,403
2015-03-07T00:14:12.264Z,419
2015-03-07T00:14:25.861Z,402
2015-03-07T00:14:39.588Z,417
2015-03-07T00:14:53.449Z,419
2015-03-07T00:15:08.762Z,408
2015-03-07T00:15:23.195Z,416
2015-03-07T00:15:38.982Z,410
2015-03-07T00:15:56.658Z,388
2015-03-07T00:16:10.624Z,410
2015-03-07T00:16:24.827Z,403
2015-03-07T00:16:38.677Z,402
2015-03-07T00:16:52.639Z,416
2015-03-07T00:17:06.323Z,408
2015-03-07T00:17:19.988Z,388
2015-03-07T00:17:33.623Z,412
2015-03-07T00:17:48.609Z,410
2015-03-07T00:18:02.361Z,426
2015-03-07T00:18:15.956Z,396
2015-03-07T00:18:29.691Z,388
2015-03-07T00:18:43.418Z,420
2015-03-07T00:18:57.088Z,420
2015-03-07T00:19:10.743Z,388
2015-03-07T00:19:24.418Z,419
2015-03-07T00:19:38.169Z,388
2015-03-07T00:19:51.987Z,411
2015-03-07T00:20:05.636Z,398
2015-03-07T00:20:19.417Z,15
2015-03-07T00:20:33.157Z,15
2015-03-07T00:20:46.794Z,15
2015-03-07T00:21:00.522Z,15
2015-03-07T00:21:14.288Z,15
2015-03-07T00:21:27.836Z,15
2015-03-07T00:21:41.497Z,15
2015-03-07T00:21:55.174Z,15
2015-03-07T00:22:08.893Z,15
2015-03-07T00:22:22.637Z,15
2015-03-07T00:22:36.311Z,15
2015-03-07T00:22:50.032Z,15
2015-03-07T00:23:03.853Z,15
2015-03-07T00:23:17.478Z,15
2015-03-07T00:23:31.220Z,15
2015-03-07T00:23:45.012Z,15
2015-03-07T00:23:58.701Z,15
2015-03-07T00:24:12.383Z,15
2015-03-07T00:24:26.222Z,15
2015-03-07T00:24:39.943Z,15
2015-03-07T00:24:53.705Z,15
2015-03-07T00:25:07.317Z,15
2015-03-07T00:25:20.987Z,15
2015-03-07T00:25:34.748Z,15
2015-03-07T00:25:48.398Z,15
2015-03-07T00:26:02.098Z,15
2015-03-07T00:26:15.816Z,15
2015-03-07T00:26:30.342Z,15
2015-03-07T00:26:43.948Z,15
2015-03-07T00:26:57.697Z,15
2015-03-07T00:27:11.325Z,15
2015-03-07T00:27:24.917Z,15
2015-03-07T00:27:38.641Z,15
2015-03-07T00:27:52.298Z,15
2015-03-07T00:28:06.073Z,15
2015-03-07T00:28:19.767Z,15
2015-03-07T00:28:33.433Z,15
2015-03-07T00:28:47.229Z,15
2015-03-07T00:29:00.939Z,15
2015-03-07T00:29:14.538Z,15
2015-03-07T00:29:28.274Z,15
2015-03-07T00:29:42.013Z,15
2015-03-07T00:29:55.617Z,15
2015-03-07T00:30:09.304Z,15
2015-03-07T00:30:23.074Z,15
2015-03-07T00:30:36.711Z,15
2015-03-07T00:30:50.418Z,15
2015-03-07T00:31:04.037Z,15
2015-03-07T00:31:17.804Z,15
2015-03-07T00:31:31.545Z,15
2015-03-07T00:31:45.178Z,15
2015-03-07T00:31:58.922Z,15
2015-03-07T00:32:12.756Z,15
2015-03-07T00:32:26.426Z,15
2015-03-07T00:32:40.135Z,15
2015-03-07T00:32:53.920Z,15
2015-03-07T00:33:07.549Z,15
2015-03-07T00:33:21.184Z,15
2015-03-07T00:33:34.885Z,15
2015-03-07T00:33:48.604Z,15
2015-03-07T00:34:02.376Z,15
2015-03-07T00:34:15.991Z,15
2015-03-07T00:34:29.586Z,15
2015-03-07T00:34:43.350Z,15
2015-03-07T00:34:57.037Z,15
2015-03-07T00:35:10.690Z,15
2015-03-07T00:35:24.447Z,15
2015-03-07T00:35:38.133Z,15
2015-03-07T00:35:51.765Z,15
2015-03-07T00:36:05.580Z,15
2015-03-07T00:36:19.301Z,15
2015-03-07T00:36:33.025Z,15
2015-03-07T00:36:46.692Z,15
2015-03-07T00:37:00.358Z,15
2015-03-07T00:37:14.044Z,15
2015-03-07T00:37:27.813Z,15
2015-03-07T00:37:41.411Z,15
2015-03-07T00:37:55.845Z,15
2015-03-07T00:38:09.574Z,15
2015-03-07T00:38:23.369Z,15
2015-03-07T00:38:37.148Z,15
2015-03-07T00:38:50.882Z,15
2015-03-07T00:39:04.510Z,15
2015-03-07T00:39:18.212Z,15
2015-03-07T00:39:31.986Z,15
2015-03-07T00:39:45.627Z,15
2015-03-07T00:39:59.328Z,15
2015-03-07T00:40:13.126Z,15
2015-03-07T00:40:26.896Z,15
2015-03-07T00:40:40.561Z,15
2015-03-07T00:40:54.320Z,15
2015-03-07T00:41:07.998Z,15
2015-03-07T00:41:21.635Z,15
2015-03-07T00:41:35.376Z,15
2015-03-07T00:41:49.090Z,15
2015-03-07T00:42:02.712Z,15
2015-03-07T00:42:16.442Z,15
2015-03-07T00:42:30.136Z,15
2015-03-07T00:42:43.901Z,15
2015-03-07T00:42:57.573Z,15
2015-03-07T00:43:11.194Z,15
2015-03-07T00:43:24.973Z,15
2015-03-07T00:43:38.681Z,15
2015-03-07T00:43:52.633Z,15
2015-03-07T00:44:06.413Z,15
2015-03-07T00:44:20.157Z,15
2015-03-07T00:44:33.838Z,15
2015-03-07T00:44:47.564Z,15
2015-03-07T00:45:01.327Z,15
2015-03-07T00:45:14.961Z,15
2015-03-07T00:45:28.663Z,15
2015-03-07T00:45:42.289Z,15
2015-03-07T00:45:56.039Z,15
2015-03-07T00:46:09.793Z,15
2015-03-07T00:46:23.632Z,15
2015-03-07T00:46:37.643Z,15
2015-03-07T00:46:51.411Z,15
2015-03-07T00:47:05.040Z,15
2015-03-07T00:47:18.743Z,15
2015-03-07T00:47:32.587Z,15
2015-03-07T00:47:46.284Z,15
2015-03-07T00:47:59.944Z,15
2015-03-07T00:48:13.662Z,15
2015-03-07T00:48:28.089Z,15
2015-03-07T00:48:41.891Z,15
2015-03-07T00:48:55.498Z,15
2015-03-07T00:49:09.191Z,15
2015-03-07T00:49:22.973Z,15
2015-03-07T00:49:36.587Z,15
2015-03-07T00:49:50.253Z,15
2015-03-07T00:50:04.037Z,15
2015-03-07T00:50:17.736Z,15
2015-03-07T00:50:31.465Z,15
2015-03-07T00:50:45.231Z,15
2015-03-07T00:50:58.945Z,15
2015-03-07T00:51:12.657Z,15
2015-03-07T00:51:26.290Z,15
2015-03-07T00:51:39.937Z,15
2015-03-07T00:51:53.610Z,15
2015-03-07T00:52:07.285Z,15
2015-03-07T00:52:20.904Z,15
2015-03-07T00:52:35.243Z,15
2015-03-07T00:52:48.946Z,15
2015-03-07T00:53:02.553Z,15
2015-03-07T00:53:16.324Z,15
2015-03-07T00:53:30.066Z,15
2015-03-07T00:53:43.714Z,15
2015-03-07T00:53:57.501Z,15
2015-03-07T00:54:11.128Z,15
2015-03-07T00:54:24.897Z,15
2015-03-07T00:54:38.619Z,15
2015-03-07T00:54:52.231Z,15
2015-03-07T00:55:05.979Z,15
2015-03-07T00:55:19.702Z,15
2015-03-07T00:55:33.323Z,15
2015-03-07T00:55:47.013Z,15
2015-03-07T00:56:00.788Z,15
2015-03-07T00:56:14.420Z,15
2015-03-07T00:56:28.111Z,15
2015-03-07T00:56:41.886Z,15
2015-03-07T00:56:55.547Z,15
2015-03-07T00:57:09.332Z,15
2015-03-07T00:57:23.038Z,15
2015-03-07T00:57:36.793Z,15
2015-03-07T00:57:50.623Z,15
2015-03-07T00:58:04.257Z,15
2015-03-07T00:58:17.921Z,15
2015-03-07T00:58:31.687Z,15
2015-03-07T00:58:45.319Z,15
2015-03-07T00:58:58.948Z,15
2015-03-07T00:59:12.736Z,15
2015-03-07T00:59:26.411Z,15
2015-03-07T00:59:40.042Z,15
2015-03-07T00:59:53.787Z,15
2015-03-07T01:00:07.491Z,15
2015-03-07T01:00:21.248Z,15
2015-03-07T01:00:34.910Z,15
2015-03-07T01:00:48.597Z,15
2015-03-07T01:01:02.386Z,15
2015-03-07T01:01:16.077Z,15
2015-03-07T01:01:29.705Z,15
2015-03-07T01:01:43.474Z,15
2015-03-07T01:01:57.191Z,15
2015-03-07T01:02:10.823Z,15
2015-03-07T01:02:24.628Z,15
2015-03-07T01:02:38.365Z,15
2015-03-07T01:02:52.035Z,15
2015-03-07T01:03:05.797Z,15
2015-03-07T01:03:19.572Z,15
2015-03-07T01:03:33.215Z,15
2015-03-07T01:03:46.892Z,15
2015-03-07T01:04:00.657Z,15
2015-03-07T01:04:14.318Z,15
2015-03-07T01:04:28.016Z,15
2015-03-07T01:04:41.851Z,15
2015-03-07T01:04:55.549Z,15
2015-03-07T01:05:09.194Z,15
2015-03-07T01:05:22.974Z,15
2015-03-07T01:05:36.697Z,15
2015-03-07T01:05:50.431Z,15
2015-03-07T01:06:04.102Z,15
2015-03-07T01:06:17.744Z,15
2015-03-07T01:06:31.578Z,15
2015-03-07T01:06:45.238Z,15
2015-03-07T01:06:58.848Z,15
2015-03-07T01:07:12.600Z,15
2015-03-07T01:07:26.380Z,15
2015-03-07T01:07:40.013Z,15
2015-03-07T01:07:53.747Z,15
2015-03-07T01:08:07.622Z,15
2015-03-07T01:08:21.391Z,15
2015-03-07T01:08:35.243Z,15
2015-03-07T01:08:48.915Z,15
2015-03-07T01:09:02.692Z,15
2015-03-07T01:09:16.441Z,15
2015-03-07T01:09:30.067Z,15
2015-03-07T01:09:43.793Z,15
2015-03-07T01:09:57.450Z,15
2015-03-07T01:10:11.084Z,15
2015-03-07T01:10:24.834Z,15
2015-03-07T01:10:38.724Z,15
2015-03-07T01:10:52.327Z,15
2015-03-07T01:11:06.008Z,15
2015-03-07T01:11:19.806Z,15
2015-03-07T01:11:33.456Z,15
2015-03-07T01:11:47.228Z,15
2015-03-07T01:12:00.894Z,15
2015-03-07T01:12:14.621Z,15
2015-03-07T01:12:28.380Z,15
2015-03-07T01:12:42.052Z,15
2015-03-07T01:12:55.736Z,15
2015-03-07T01:13:09.540Z,15
2015-03-07T01:13:23.170Z,15
2015-03-07T01:13:36.818Z,15
2015-03-07T01:13:50.609Z,15
2015-03-07T01:14:04.306Z,15
2015-03-07T01:14:17.912Z,15
2015-03-07T01:14:31.646Z,15
2015-03-07T01:14:45.355Z,15
2015-03-07T01:14:59.115Z,15
2015-03-07T01:15:12.765Z,15
2015-03-07T01:15:26.420Z,15
2015-03-07T01:15:40.171Z,15
2015-03-07T01:15:53.903Z,15
2015-03-07T01:16:07.530Z,15
2015-03-07T01:16:21.434Z,15
2015-03-07T01:16:35.505Z,15
2015-03-07T01:16:49.144Z,15
2015-03-07T01:17:02.921Z,15
2015-03-07T01:17:16.659Z,15
2015-03-07T01:17:30.339Z,15
2015-03-07T01:17:44.004Z,15
2015-03-07T01:17:57.635Z,15
2015-03-07T01:18:11.409Z,15
2015-03-07T01:18:25.140Z,15
2015-03-07T01:18:38.843Z,15
2015-03-07T01:18:52.561Z,15
2015-03-07T01:19:06.309Z,15
2015-03-07T01:19:19.934Z,15
2015-03-07T01:19:33.650Z,15
2015-03-07T01:19:47.427Z,15
2015-03-07T01:20:01.047Z,15
2015-03-07T01:20:14.756Z,15
2015-03-07T01:20:28.475Z,15
2015-03-07T01:20:42.288Z,15
2015-03-07T01:20:56.017Z,15
2015-03-07T01:21:09.629Z,15
2015-03-07T01:21:23.338Z,15
2015-03-07T01:21:37.091Z,15
2015-03-07T01:21:50.728Z,15
2015-03-07T01:22:04.413Z,15
2015-03-07T01:22:18.103Z,15
2015-03-07T01:22:31.756Z,15
2015-03-07T01:22:45.544Z,15
2015-03-07T01:22:59.332Z,15
2015-03-07T01:23:13.029Z,15
2015-03-07T01:23:26.783Z,15
2015-03-07T01:23:40.406Z,15
2015-03-07T01:23:54.180Z,15
2015-03-07T01:24:07.962Z,15
2015-03-07T01:24:21.648Z,15
2015-03-07T01:24:35.299Z,15
2015-03-07T01:24:49.048Z,15
2015-03-07T01:25:02.714Z,15
2015-03-07T01:25:16.350Z,15
2015-03-07T01:25:30.102Z,15
2015-03-07T01:25:43.878Z,15
2015-03-07T01:25:57.488Z,15
2015-03-07T01:26:11.212Z,15
2015-03-07T01:26:24.884Z,15
2015-03-07T01:26:38.503Z,15
2015-03-07T01:26:52.213Z,15
2015-03-07T01:27:05.961Z,15
2015-03-07T01:27:19.599Z,15
2015-03-07T01:27:33.317Z,15
2015-03-07T01:27:47.127Z,15
2015-03-07T01:28:00.816Z,15
2015-03-07T01:28:14.499Z,15
2015-03-07T01:28:28.312Z,15
2015-03-07T01:28:41.999Z,15
2015-03-07T01:28:55.618Z,15
2015-03-07T01:29:09.340Z,15
2015-03-07T01:29:23.023Z,15
2015-03-07T01:29:36.796Z,15
2015-03-07T01:29:50.470Z,15
2015-03-07T01:30:04.103Z,15
2015-03-07T01:30:17.857Z,15
2015-03-07T01:30:31.532Z,15
2015-03-07T01:30:45.176Z,15
2015-03-07T01:30:58.932Z,15
2015-03-07T01:31:12.642Z,15
2015-03-07T01:31:26.269Z,15
2015-03-07T01:31:40.056Z,15
2015-03-07T01:31:53.825Z,15
2015-03-07T01:32:07.545Z,15
2015-03-07T01:32:21.241Z,15
2015-03-07T01:32:34.889Z,15
2015-03-07T01:32:48.643Z,15
2015-03-07T19:30:09.857Z,758
2015-03-07T19:30:24.152Z,772
2015-03-07T19:30:37.640Z,733
2015-03-07T19:30:51.272Z,744
2015-03-07T19:31:04.701Z,766
2015-03-07T19:31:18.386Z,767
2015-03-07T19:31:32.449Z,751
2015-03-07T19:31:45.855Z,726
2015-03-07T19:31:59.403Z,755
2015-03-07T19:32:13.101Z,720
2015-03-07T19:32:26.592Z,772
2015-03-07T19:32:39.986Z,700
2015-03-07T19:32:54.013Z,718
2015-03-07T19:33:07.610Z,746
2015-03-07T19:33:21.006Z,684
2015-03-07T19:33:35.368Z,683
2015-03-07T19:33:48.929Z,733
2015-03-07T19:34:02.963Z,719
2015-03-07T19:34:16.731Z,717
2015-03-07T19:34:30.246Z,733
2015-03-07T19:34:44.338Z,687
2015-03-07T19:34:57.886Z,718
2015-03-07T19:35:11.230Z,711
2015-03-07T19:35:24.849Z,719
2015-03-07T19:35:38.468Z,727
2015-03-07T19:35:51.903Z,705
2015-03-07T19:36:05.520Z,713
2015-03-07T19:36:19.273Z,713
2015-03-07T19:36:32.673Z,671
2015-03-07T19:36:46.218Z,711
2015-03-07T19:36:59.885Z,696
2015-03-07T19:37:13.335Z,718
2015-03-07T19:37:26.761Z,680
2015-03-07T19:37:40.373Z,688
2015-03-07T19:37:53.946Z,683
2015-03-07T19:38:07.382Z,687
2015-03-07T19:38:21.024Z,695
2015-03-07T19:38:34.560Z,689
2015-03-07T19:38:47.936Z,725
2015-03-07T19:39:01.562Z,693
2015-03-07T19:39:15.210Z,687
2015-03-07T19:39:28.739Z,720
2015-03-07T19:39:42.267Z,714
2015-03-07T19:39:55.711Z,688
2015-03-07T19:40:09.993Z,710
2015-03-07T19:40:23.564Z,702
2015-03-07T19:40:36.935Z,710
2015-03-07T19:40:50.614Z,702
2015-03-07T19:41:04.224Z,687
2015-03-07T19:41:18.722Z,717
2015-03-07T19:41:32.344Z,709
2015-03-07T19:41:46.025Z,702
2015-03-07T19:41:59.877Z,702
2015-03-07T19:42:14.286Z,710
2015-03-07T19:42:27.840Z,693
2015-03-07T19:42:41.573Z,710
2015-03-07T19:42:55.287Z,693
2015-03-07T19:43:08.703Z,715
2015-03-07T19:43:22.243Z,708
2015-03-07T19:43:35.902Z,699
2015-03-07T19:43:49.312Z,684
2015-03-07T19:44:02.857Z,691
2015-03-07T19:44:16.509Z,723
2015-03-07T19:44:30.099Z,708
2015-03-07T19:44:43.529Z,731
2015-03-07T19:44:57.200Z,723
2015-03-07T19:45:10.714Z,693
2015-03-07T19:45:24.316Z,672
2015-03-07T19:45:37.632Z,707
2015-03-07T19:45:51.129Z,678
2015-03-07T19:46:04.808Z,686
2015-03-07T19:46:18.462Z,692
2015-03-07T19:46:32.265Z,676
2015-03-07T19:46:45.845Z,714
2015-03-07T19:46:59.406Z,702
2015-03-07T19:47:12.807Z,674
2015-03-07T19:47:26.496Z,729
2015-03-07T19:47:40.062Z,707
2015-03-07T19:47:53.460Z,682
2015-03-07T19:48:07.175Z,675
2015-03-07T19:48:20.812Z,728
2015-03-07T19:48:34.213Z,697
2015-03-07T19:48:47.770Z,694
2015-03-07T19:49:01.436Z,735
2015-03-07T19:49:15.161Z,711
2015-03-07T19:49:28.683Z,735
2015-03-07T19:49:42.333Z,734
2015-03-07T19:49:55.775Z,688
2015-03-07T19:50:09.283Z,721
2015-03-07T19:50:22.967Z,727
2015-03-07T19:50:36.573Z,733
2015-03-07T19:50:53.514Z,695
2015-03-07T19:51:07.132Z,732
2015-03-07T19:51:20.629Z,742
2015-03-07T19:51:35.347Z,732
2015-03-07T19:51:50.417Z,723
2015-03-07T19:52:03.918Z,732
2015-03-07T19:52:17.592Z,740
2015-03-07T19:52:31.062Z,716
2015-03-07T19:52:44.454Z,694
2015-03-07T19:52:58.108Z,739
2015-03-07T19:53:11.662Z,712
2015-03-07T19:53:25.076Z,730
2015-03-07T19:53:38.717Z,716
2015-03-07T19:53:52.342Z,721
2015-03-07T19:54:05.837Z,715
2015-03-07T19:54:19.351Z,730
2015-03-07T19:54:32.732Z,731
2015-03-07T19:54:46.383Z,737
2015-03-07T19:54:59.916Z,738
2015-03-07T19:55:13.294Z,691
2015-03-07T19:55:26.928Z,706
2015-03-07T19:55:40.523Z,689
2015-03-07T19:55:53.906Z,706
2015-03-07T19:56:07.551Z,700
2015-03-07T19:56:21.272Z,742
2015-03-07T19:56:34.685Z,700
2015-03-07T19:56:51.999Z,725
2015-03-07T19:57:11.336Z,693
2015-03-07T19:57:30.562Z,731
2015-03-07T19:57:50.461Z,732
2015-03-07T19:58:09.301Z,737
2015-03-07T19:58:29.318Z,698
2015-03-07T19:58:45.672Z,738
2015-03-07T19:58:59.067Z,706
2015-03-07T19:59:12.599Z,746
2015-03-07T19:59:26.288Z,707
2015-03-07T19:59:39.746Z,746
2015-03-07T19:59:53.176Z,697
2015-03-07T20:00:06.828Z,746
2015-03-07T20:00:20.328Z,718
2015-03-07T20:00:33.704Z,690
2015-03-07T20:00:47.359Z,686
2015-03-07T20:01:00.910Z,694
2015-03-07T20:01:14.333Z,717
2015-03-07T20:01:28.409Z,701
2015-03-07T20:01:42.017Z,678
2015-03-07T20:01:56.378Z,709
2015-03-07T20:02:09.968Z,710
2015-03-07T20:02:23.740Z,694
2015-03-07T20:02:37.187Z,708
2015-03-07T20:02:50.706Z,724
2015-03-07T20:03:04.361Z,694
2015-03-07T20:03:17.794Z,678
2015-03-07T20:03:31.417Z,693
2015-03-07T20:03:44.855Z,694
2015-03-07T20:03:58.472Z,709
2015-03-07T20:04:12.197Z,677
2015-03-07T20:04:25.595Z,708
2015-03-07T20:04:39.153Z,702
2015-03-07T20:04:52.896Z,669
2015-03-07T20:05:06.396Z,694
2015-03-07T20:05:20.911Z,684
2015-03-07T20:05:35.074Z,691
2015-03-07T20:05:49.688Z,723
2015-03-07T20:06:03.187Z,716
2015-03-07T20:06:17.170Z,684
2015-03-07T20:06:30.782Z,707
2015-03-07T20:06:44.666Z,707
2015-03-07T20:06:58.165Z,676
2015-03-07T20:07:11.755Z,723
2015-03-07T20:07:25.517Z,700
2015-03-07T20:07:39.300Z,693
2015-03-07T20:07:52.782Z,677
2015-03-07T20:08:06.538Z,717
2015-03-07T20:08:20.149Z,713
2015-03-07T20:08:33.581Z,687
2015-03-07T20:08:47.200Z,811
2015-03-07T20:09:00.799Z,775
2015-03-07T20:09:14.309Z,823
2015-03-07T20:09:27.818Z,786
2015-03-07T20:09:41.187Z,810
2015-03-07T20:09:54.879Z,763
2015-03-07T20:10:08.476Z,775
2015-03-07T20:10:21.884Z,789
2015-03-07T20:10:35.591Z,816
2015-03-07T20:10:49.252Z,815
2015-03-07T20:11:02.688Z,776
2015-03-07T20:11:16.282Z,799
2015-03-07T20:11:30.277Z,806
2015-03-07T20:11:43.674Z,776
2015-03-07T20:11:57.237Z,798
2015-03-07T20:12:10.865Z,775
2015-03-07T20:12:24.691Z,783
2015-03-07T20:12:38.334Z,776
2015-03-07T20:12:51.881Z,799
2015-03-07T20:13:05.466Z,822
2015-03-07T20:13:19.175Z,767
2015-03-07T20:13:32.617Z,817
2015-03-07T20:13:46.155Z,768
2015-03-07T20:13:59.846Z,775
2015-03-07T20:14:13.412Z,808
2015-03-07T20:14:26.837Z,771
2015-03-07T20:14:40.587Z,807
2015-03-07T20:14:54.149Z,783
2015-03-07T20:15:07.843Z,794
2015-03-07T20:15:21.270Z,785
2015-03-07T20:15:34.895Z,748
2015-03-07T20:15:48.649Z,823
2015-03-07T20:16:02.313Z,799
2015-03-07T20:16:19.339Z,791
2015-03-07T20:16:42.029Z,777
2015-03-07T20:16:56.040Z,776
2015-03-07T20:17:09.457Z,814
2015-03-07T20:17:23.327Z,763
2015-03-07T20:17:36.904Z,800
2015-03-07T20:17:50.251Z,777
2015-03-07T20:18:03.969Z,785
2015-03-07T20:18:17.431Z,801
2015-03-07T20:18:31.145Z,811
2015-03-07T20:18:44.716Z,785
2015-03-07T20:18:58.144Z,771
2015-03-07T20:19:11.856Z,795
2015-03-07T20:19:25.350Z,773
2015-03-07T20:19:38.802Z,831
2015-03-07T20:19:52.457Z,792
2015-03-07T20:20:06.102Z,755
2015-03-07T20:20:19.502Z,761
2015-03-07T20:20:33.104Z,770
2015-03-07T20:20:46.953Z,770
2015-03-07T20:21:12.680Z,778
2015-03-07T20:21:31.431Z,768
2015-03-07T20:21:44.906Z,760
2015-03-07T20:21:58.564Z,794
2015-03-07T20:22:12.162Z,763
2015-03-07T20:22:25.612Z,763
2015-03-07T20:22:49.047Z,786
2015-03-07T20:23:02.731Z,795
2015-03-07T20:23:16.137Z,801
2015-03-07T20:23:29.665Z,754
2015-03-07T20:23:44.147Z,768
2015-03-07T20:24:04.999Z,770
2015-03-07T20:24:18.458Z,794
2015-03-07T20:24:32.176Z,753
2015-03-07T20:24:50.171Z,783
2015-03-07T20:25:03.515Z,760
2015-03-07T20:25:17.204Z,798
2015-03-07T20:25:34.241Z,814
2015-03-07T20:25:56.671Z,814
2015-03-07T20:26:20.028Z,806
2015-03-07T20:26:53.101Z,785
2015-03-07T20:27:31.702Z,823
2015-03-07T20:28:20.320Z,786
2015-03-07T20:28:52.167Z,816
2015-03-07T20:29:13.791Z,810
2015-03-07T20:29:34.667Z,809
2015-03-07T20:29:59.316Z,756
2015-03-07T20:30:19.855Z,771
2015-03-07T20:30:40.136Z,798
2015-03-07T20:31:10.218Z,817
2015-03-07T20:31:40.549Z,763
2015-03-07T20:32:14.583Z,818
2015-03-07T20:32:41.753Z,764
